Time;durP1;ratioP1;P1;durP2;ratioP2;P2;SDS_P1;SDS_P2;PMS_P1;PMS_P2;Temp;Humidity;BMP_temperature;BMP_pressure;BME280_temperature;BME280_humidity;BME280_pressure;Samples;Min_cycle;Max_cycle;Signal;HPM_P1;HPM_P2
2022/03/11 00:01:30;;;;;;;15.10;6.60;;;;;;;;;;5094288;28;20024;-49
2022/03/11 00:03:56;;;;;;;11.57;5.88;;;;;;;;;;5094275;28;20050;-48
2022/03/11 00:06:22;;;;;;;16.45;5.63;;;;;;;;;;5084021;28;20465;-48
2022/03/11 00:08:49;;;;;;;13.57;6.32;;;;;;;;;;5080841;28;20028;-46
2022/03/11 00:11:16;;;;;;;12.13;5.82;;;;;;;;;;5093310;28;20522;-47
2022/03/11 00:13:42;;;;;;;14.20;6.50;;;;;;;;;;5093834;28;20035;-46
2022/03/11 00:16:08;;;;;;;13.35;5.60;;;;;;;;;;5089208;28;20525;-47
2022/03/11 00:18:34;;;;;;;13.98;5.70;;;;;;;;;;5086329;28;20075;-51
2022/03/11 00:21:00;;;;;;;13.38;6.05;;;;;;;;;;5083629;28;20028;-47
2022/03/11 00:23:26;;;;;;;12.40;6.25;;;;;;;;;;5090981;28;20070;-49
2022/03/11 00:25:52;;;;;;;16.80;6.05;;;;;;;;;;5082901;28;20032;-47
2022/03/11 00:28:18;;;;;;;14.73;6.05;;;;;;;;;;5087896;28;20028;-48
2022/03/11 00:30:44;;;;;;;12.88;5.63;;;;;;;;;;5083867;28;20051;-46
2022/03/11 00:33:10;;;;;;;13.48;5.95;;;;;;;;;;5092118;28;20076;-47
2022/03/11 00:35:36;;;;;;;14.40;5.38;;;;;;;;;;5075125;28;20028;-48
2022/03/11 00:38:02;;;;;;;14.68;5.90;;;;;;;;;;5089897;28;20035;-46
2022/03/11 00:40:28;;;;;;;11.90;5.10;;;;;;;;;;5078091;28;20047;-47
2022/03/11 00:42:54;;;;;;;14.77;6.13;;;;;;;;;;5090515;28;20028;-49
2022/03/11 00:45:22;;;;;;;14.77;5.95;;;;;;;;;;5086800;28;20548;-46
2022/03/11 00:47:48;;;;;;;15.10;6.55;;;;;;;;;;5090780;28;20024;-47
2022/03/11 00:50:14;;;;;;;12.20;5.75;;;;;;;;;;5086518;28;20112;-47
2022/03/11 00:52:43;;;;;;;11.35;5.55;;;;;;;;;;5086594;28;20051;-46
2022/03/11 00:55:10;;;;;;;15.20;6.78;;;;;;;;;;5085284;28;20035;-46
2022/03/11 00:57:36;;;;;;;13.70;6.07;;;;;;;;;;5091565;28;20444;-47
2022/03/11 01:00:03;;;;;;;10.65;5.38;;;;;;;;;;5086109;28;20047;-47
2022/03/11 01:02:33;;;;;;;14.77;5.93;;;;;;;;;;5092691;28;20020;-47
2022/03/11 01:04:59;;;;;;;13.70;5.70;;;;;;;;;;5084128;28;20037;-47
2022/03/11 01:07:25;;;;;;;14.23;5.90;;;;;;;;;;5090445;28;20043;-47
2022/03/11 01:09:51;;;;;;;13.43;5.80;;;;;;;;;;5090439;28;20444;-49
2022/03/11 01:12:17;;;;;;;14.30;5.70;;;;;;;;;;5084509;28;20028;-49
2022/03/11 01:14:43;;;;;;;17.38;6.47;;;;;;;;;;5087095;28;20028;-46
2022/03/11 01:17:11;;;;;;;15.27;5.97;;;;;;;;;;5087627;28;20085;-47
2022/03/11 01:19:37;;;;;;;10.25;5.60;;;;;;;;;;5092334;28;20047;-48
2022/03/11 01:22:03;;;;;;;15.50;6.10;;;;;;;;;;5092219;28;20383;-46
2022/03/11 01:24:29;;;;;;;10.73;5.28;;;;;;;;;;5091544;28;20027;-47
2022/03/11 01:26:55;;;;;;;13.10;6.72;;;;;;;;;;5082564;28;20031;-46
2022/03/11 01:29:21;;;;;;;14.90;6.70;;;;;;;;;;5083194;28;20130;-46
2022/03/11 01:31:46;;;;;;;9.60;5.63;;;;;;;;;;5085839;28;20177;-46
2022/03/11 01:34:13;;;;;;;13.40;5.80;;;;;;;;;;5080398;28;20087;-47
2022/03/11 01:36:39;;;;;;;13.88;5.90;;;;;;;;;;5090844;28;20023;-47
2022/03/11 01:39:05;;;;;;;16.02;6.65;;;;;;;;;;5076451;28;20036;-46
2022/03/11 01:41:31;;;;;;;12.32;5.65;;;;;;;;;;5084706;28;20410;-48
2022/03/11 01:44:01;;;;;;;16.48;5.93;;;;;;;;;;5079668;28;20024;-47
2022/03/11 01:46:28;;;;;;;13.13;5.85;;;;;;;;;;5079752;28;20028;-47
2022/03/11 01:48:54;;;;;;;17.85;7.07;;;;;;;;;;5082894;28;20021;-48
2022/03/11 01:51:20;;;;;;;13.43;6.05;;;;;;;;;;5092167;28;20732;-50
2022/03/11 01:53:46;;;;;;;14.10;6.20;;;;;;;;;;5085926;28;20498;-49
2022/03/11 01:56:14;;;;;;;13.30;6.22;;;;;;;;;;5087971;28;20028;-48
2022/03/11 01:58:40;;;;;;;13.48;5.68;;;;;;;;;;5084056;28;20035;-48
2022/03/11 02:01:06;;;;;;;16.70;6.38;;;;;;;;;;5082952;28;20550;-50
2022/03/11 02:03:33;;;;;;;12.38;6.13;;;;;;;;;;5077852;28;20036;-48
2022/03/11 02:06:02;;;;;;;16.02;6.60;;;;;;;;;;5090726;28;20028;-47
2022/03/11 02:08:28;;;;;;;15.27;6.47;;;;;;;;;;5090976;28;20033;-46
2022/03/11 02:10:55;;;;;;;16.95;6.45;;;;;;;;;;5088982;28;20103;-46
2022/03/11 02:13:21;;;;;;;12.93;6.45;;;;;;;;;;5087718;28;20476;-47
2022/03/11 02:15:47;;;;;;;14.13;6.32;;;;;;;;;;5092165;28;20028;-49
2022/03/11 02:18:13;;;;;;;14.85;6.93;;;;;;;;;;5078652;28;20410;-48
2022/03/11 02:20:39;;;;;;;12.63;6.65;;;;;;;;;;5078580;28;20039;-48
2022/03/11 02:23:07;;;;;;;16.20;7.78;;;;;;;;;;5081847;28;20338;-46
2022/03/11 02:25:33;;;;;;;14.98;5.45;;;;;;;;;;5091851;28;20034;-46
2022/03/11 02:27:59;;;;;;;15.77;6.95;;;;;;;;;;5084694;28;20369;-47
2022/03/11 02:30:25;;;;;;;16.00;6.55;;;;;;;;;;5082162;28;20027;-47
2022/03/11 02:32:51;;;;;;;14.85;6.72;;;;;;;;;;5079146;28;20029;-46
2022/03/11 02:35:18;;;;;;;14.63;6.47;;;;;;;;;;5091494;28;20433;-46
2022/03/11 02:37:44;;;;;;;14.63;6.60;;;;;;;;;;5089413;28;20024;-46
2022/03/11 02:40:10;;;;;;;17.67;6.40;;;;;;;;;;5077652;28;20059;-46
2022/03/11 02:42:36;;;;;;;14.85;6.35;;;;;;;;;;5086585;28;20032;-46
2022/03/11 02:45:03;;;;;;;16.23;6.47;;;;;;;;;;5085371;28;20031;-46
2022/03/11 02:47:29;;;;;;;15.02;6.85;;;;;;;;;;5094643;28;20028;-48
2022/03/11 02:49:55;;;;;;;14.30;6.55;;;;;;;;;;5084879;28;20544;-50
2022/03/11 02:52:21;;;;;;;19.63;7.28;;;;;;;;;;5082842;28;20116;-45
2022/03/11 02:54:48;;;;;;;16.15;6.82;;;;;;;;;;5084832;28;20020;-48
2022/03/11 02:57:15;;;;;;;29.20;8.13;;;;;;;;;;5088691;28;20028;-46
2022/03/11 02:59:41;;;;;;;15.48;6.47;;;;;;;;;;5086367;28;20028;-46
2022/03/11 03:02:07;;;;;;;16.73;6.80;;;;;;;;;;5081003;28;20028;-47
2022/03/11 03:04:33;;;;;;;17.30;7.60;;;;;;;;;;5095685;28;20524;-46
2022/03/11 03:06:59;;;;;;;15.77;7.13;;;;;;;;;;5087763;28;20638;-46
2022/03/11 03:09:25;;;;;;;14.20;6.15;;;;;;;;;;5083780;28;20020;-46
2022/03/11 03:11:52;;;;;;;18.42;7.03;;;;;;;;;;5081518;28;20016;-46
2022/03/11 03:14:18;;;;;;;14.20;5.93;;;;;;;;;;5095672;28;20052;-45
2022/03/11 03:16:44;;;;;;;19.48;7.32;;;;;;;;;;5086027;28;20097;-46
2022/03/11 03:19:10;;;;;;;19.10;6.47;;;;;;;;;;5093354;28;20036;-46
2022/03/11 03:21:36;;;;;;;15.20;6.32;;;;;;;;;;5092488;28;20476;-48
2022/03/11 03:24:02;;;;;;;20.17;7.20;;;;;;;;;;5078082;28;20034;-48
2022/03/11 03:26:28;;;;;;;18.27;7.45;;;;;;;;;;5079467;28;20070;-46
2022/03/11 03:28:54;;;;;;;17.10;7.57;;;;;;;;;;5095110;28;20024;-47
2022/03/11 03:31:21;;;;;;;15.18;6.60;;;;;;;;;;5092924;28;20020;-46
2022/03/11 03:33:48;;;;;;;17.33;6.82;;;;;;;;;;5087490;28;20028;-47
2022/03/11 03:36:14;;;;;;;18.00;6.90;;;;;;;;;;5084717;28;20513;-48
2022/03/11 03:38:40;;;;;;;17.20;7.43;;;;;;;;;;5089119;28;20051;-48
2022/03/11 03:41:06;;;;;;;15.55;7.22;;;;;;;;;;5081237;28;20033;-47
2022/03/11 03:43:32;;;;;;;15.95;6.38;;;;;;;;;;5094723;28;20024;-47
2022/03/11 03:45:58;;;;;;;16.25;6.65;;;;;;;;;;5081257;28;20027;-49
2022/03/11 03:48:24;;;;;;;15.30;6.80;;;;;;;;;;5093929;28;20391;-46
2022/03/11 03:50:50;;;;;;;18.70;6.72;;;;;;;;;;5083922;28;20024;-47
2022/03/11 03:53:16;;;;;;;15.88;6.50;;;;;;;;;;5084115;28;20048;-47
2022/03/11 03:55:42;;;;;;;15.35;6.72;;;;;;;;;;5092779;28;20103;-48
2022/03/11 03:58:09;;;;;;;16.30;7.35;;;;;;;;;;5092995;28;20048;-47
2022/03/11 04:00:35;;;;;;;16.20;7.45;;;;;;;;;;5085138;28;20025;-47
2022/03/11 04:03:01;;;;;;;18.10;7.07;;;;;;;;;;5093904;28;20375;-46
2022/03/11 04:05:27;;;;;;;17.42;7.53;;;;;;;;;;5087538;28;20028;-47
2022/03/11 04:07:53;;;;;;;12.30;6.85;;;;;;;;;;5089875;28;20103;-46
2022/03/11 04:10:20;;;;;;;21.17;7.43;;;;;;;;;;5087231;28;20028;-45
2022/03/11 04:12:46;;;;;;;17.50;6.35;;;;;;;;;;5083658;28;20016;-46
2022/03/11 04:15:12;;;;;;;17.95;7.88;;;;;;;;;;5089152;28;20028;-46
2022/03/11 04:17:38;;;;;;;16.75;7.18;;;;;;;;;;5092570;28;20028;-48
2022/03/11 04:20:05;;;;;;;17.73;7.28;;;;;;;;;;5090923;28;20365;-48
2022/03/11 04:22:31;;;;;;;16.73;6.95;;;;;;;;;;5082234;28;20036;-47
2022/03/11 04:24:57;;;;;;;18.25;7.20;;;;;;;;;;5085963;28;20495;-47
2022/03/11 04:27:23;;;;;;;16.58;7.15;;;;;;;;;;5085404;28;20032;-49
2022/03/11 04:29:49;;;;;;;17.50;7.43;;;;;;;;;;5080006;28;20119;-47
2022/03/11 04:32:15;;;;;;;14.93;7.10;;;;;;;;;;5093777;28;20031;-45
2022/03/11 04:34:41;;;;;;;14.20;6.95;;;;;;;;;;5080306;28;20475;-47
2022/03/11 04:37:07;;;;;;;16.95;6.88;;;;;;;;;;5083074;28;20023;-46
2022/03/11 04:39:33;;;;;;;17.80;7.68;;;;;;;;;;5089500;28;20031;-46
2022/03/11 04:41:59;;;;;;;16.20;7.18;;;;;;;;;;5085531;28;20025;-48
2022/03/11 04:44:25;;;;;;;16.95;6.55;;;;;;;;;;5090040;28;20028;-47
2022/03/11 04:46:51;;;;;;;17.90;7.57;;;;;;;;;;5090462;28;20035;-47
2022/03/11 04:49:17;;;;;;;16.38;7.35;;;;;;;;;;5088957;28;20024;-46
2022/03/11 04:51:43;;;;;;;15.63;7.47;;;;;;;;;;5081472;28;20374;-46
2022/03/11 04:54:09;;;;;;;16.73;7.05;;;;;;;;;;5093467;28;20039;-48
2022/03/11 04:56:37;;;;;;;18.45;7.57;;;;;;;;;;5090004;28;20039;-47
2022/03/11 04:59:03;;;;;;;18.67;8.02;;;;;;;;;;5085455;28;20027;-46
2022/03/11 05:01:29;;;;;;;23.70;8.10;;;;;;;;;;5078521;28;20025;-48
2022/03/11 05:03:55;;;;;;;17.90;7.78;;;;;;;;;;5085219;28;20020;-49
2022/03/11 05:06:21;;;;;;;16.05;7.07;;;;;;;;;;5083465;28;20367;-50
2022/03/11 05:08:47;;;;;;;19.33;7.80;;;;;;;;;;5090673;28;20020;-50
2022/03/11 05:11:13;;;;;;;18.90;7.55;;;;;;;;;;5081688;28;20024;-50
2022/03/11 05:13:39;;;;;;;17.73;7.28;;;;;;;;;;5079280;28;20086;-47
2022/03/11 05:16:05;;;;;;;19.13;7.53;;;;;;;;;;5086038;28;20039;-48
2022/03/11 05:18:31;;;;;;;17.35;7.13;;;;;;;;;;5086514;28;20086;-51
2022/03/11 05:20:57;;;;;;;18.02;7.60;;;;;;;;;;5088471;28;20040;-46
2022/03/11 05:23:23;;;;;;;17.30;8.50;;;;;;;;;;5086236;28;20036;-46
2022/03/11 05:25:49;;;;;;;22.88;11.50;;;;;;;;;;5073455;28;20505;-46
2022/03/11 05:28:15;;;;;;;22.60;8.20;;;;;;;;;;5092809;28;20105;-45
2022/03/11 05:30:41;;;;;;;20.92;7.68;;;;;;;;;;5093015;28;20016;-46
2022/03/11 05:33:07;;;;;;;21.60;9.27;;;;;;;;;;5089214;28;20031;-48
2022/03/11 05:35:33;;;;;;;18.50;6.75;;;;;;;;;;5081789;28;20025;-46
2022/03/11 05:37:59;;;;;;;18.20;8.45;;;;;;;;;;5084396;28;20024;-49
2022/03/11 05:40:26;;;;;;;16.92;8.10;;;;;;;;;;5085709;28;20102;-47
2022/03/11 05:42:51;;;;;;;20.13;7.60;;;;;;;;;;5080089;28;20123;-48
2022/03/11 05:45:17;;;;;;;21.98;9.23;;;;;;;;;;5086908;28;20503;-47
2022/03/11 05:47:44;;;;;;;17.25;7.60;;;;;;;;;;5081687;28;20438;-49
2022/03/11 05:50:10;;;;;;;15.82;7.82;;;;;;;;;;5083738;28;20021;-48
2022/03/11 05:52:40;;;;;;;18.38;7.65;;;;;;;;;;5076451;28;20591;-50
2022/03/11 05:55:07;;;;;;;19.77;8.65;;;;;;;;;;5083894;28;20157;-47
2022/03/11 05:57:33;;;;;;;19.90;8.57;;;;;;;;;;5078345;28;20024;-50
2022/03/11 05:59:59;;;;;;;23.38;9.13;;;;;;;;;;5074709;28;20590;-47
2022/03/11 06:02:25;;;;;;;17.92;8.80;;;;;;;;;;5088252;28;20032;-48
2022/03/11 06:04:51;;;;;;;21.98;8.93;;;;;;;;;;5082078;28;20107;-50
2022/03/11 06:07:17;;;;;;;20.20;8.23;;;;;;;;;;5081672;28;20376;-46
2022/03/11 06:09:43;;;;;;;17.80;7.75;;;;;;;;;;5062089;28;20049;-48
2022/03/11 06:12:09;;;;;;;18.88;7.13;;;;;;;;;;5083967;28;20453;-48
2022/03/11 06:14:35;;;;;;;17.67;7.80;;;;;;;;;;5073971;28;20069;-47
2022/03/11 06:17:01;;;;;;;20.58;8.07;;;;;;;;;;5088504;28;20089;-48
2022/03/11 06:19:27;;;;;;;23.70;8.63;;;;;;;;;;5076351;28;20033;-47
2022/03/11 06:21:55;;;;;;;20.52;8.13;;;;;;;;;;5081572;28;20039;-47
2022/03/11 06:24:21;;;;;;;16.10;7.80;;;;;;;;;;5079088;28;20036;-47
2022/03/11 06:26:47;;;;;;;18.35;8.48;;;;;;;;;;5083859;28;20034;-47
2022/03/11 06:29:13;;;;;;;21.83;8.65;;;;;;;;;;5084511;28;20028;-46
2022/03/11 06:31:39;;;;;;;19.50;9.15;;;;;;;;;;5077789;28;20481;-48
2022/03/11 06:34:05;;;;;;;18.95;8.50;;;;;;;;;;5079655;28;20064;-48
2022/03/11 06:36:34;;;;;;;17.80;8.13;;;;;;;;;;5076349;28;20042;-47
2022/03/11 06:39:00;;;;;;;17.88;8.05;;;;;;;;;;5076793;28;20026;-50
2022/03/11 06:41:26;;;;;;;19.90;8.43;;;;;;;;;;5077796;28;20082;-49
2022/03/11 06:43:52;;;;;;;21.83;7.95;;;;;;;;;;5079616;28;20559;-47
2022/03/11 06:46:17;;;;;;;19.50;7.40;;;;;;;;;;5089911;28;20020;-47
2022/03/11 06:48:44;;;;;;;18.33;7.95;;;;;;;;;;5077345;28;20585;-49
2022/03/11 06:51:10;;;;;;;21.88;8.00;;;;;;;;;;5081768;28;20053;-49
2022/03/11 06:53:36;;;;;;;17.42;7.90;;;;;;;;;;5089575;28;20505;-47
2022/03/11 06:56:04;;;;;;;18.23;7.57;;;;;;;;;;5084592;28;20023;-49
2022/03/11 06:58:30;;;;;;;19.90;7.97;;;;;;;;;;5081195;28;20059;-48
2022/03/11 07:00:56;;;;;;;18.00;8.07;;;;;;;;;;5080855;28;20549;-47
2022/03/11 07:03:22;;;;;;;19.83;8.52;;;;;;;;;;5080383;28;20042;-47
2022/03/11 07:05:49;;;;;;;21.13;8.43;;;;;;;;;;5079360;28;20475;-47
2022/03/11 07:08:15;;;;;;;18.30;8.25;;;;;;;;;;5082476;28;20492;-47
2022/03/11 07:10:41;;;;;;;20.42;8.55;;;;;;;;;;5072449;28;20024;-47
2022/03/11 07:13:07;;;;;;;21.88;8.27;;;;;;;;;;5078911;28;20035;-47
2022/03/11 07:15:33;;;;;;;18.88;7.68;;;;;;;;;;5089753;28;20115;-48
2022/03/11 07:17:59;;;;;;;21.10;8.23;;;;;;;;;;5088641;28;20399;-47
2022/03/11 07:20:25;;;;;;;21.35;9.35;;;;;;;;;;5073533;28;20060;-47
2022/03/11 07:22:51;;;;;;;19.10;7.40;;;;;;;;;;5071364;28;20099;-51
2022/03/11 07:25:17;;;;;;;22.15;8.77;;;;;;;;;;5087244;28;20040;-47
2022/03/11 07:27:45;;;;;;;20.27;7.97;;;;;;;;;;5077343;28;20472;-48
2022/03/11 07:30:11;;;;;;;18.42;8.25;;;;;;;;;;5076255;28;20020;-46
2022/03/11 07:32:38;;;;;;;20.85;7.72;;;;;;;;;;5074275;28;20028;-47
2022/03/11 07:35:04;;;;;;;21.02;8.80;;;;;;;;;;5081875;28;20589;-47
2022/03/11 07:37:30;;;;;;;17.65;7.88;;;;;;;;;;5080460;28;20503;-47
2022/03/11 07:39:56;;;;;;;21.08;8.50;;;;;;;;;;5082109;28;20123;-47
2022/03/11 07:42:22;;;;;;;22.77;7.45;;;;;;;;;;5084627;28;20401;-47
2022/03/11 07:44:48;;;;;;;18.17;7.70;;;;;;;;;;5074383;28;20135;-47
2022/03/11 07:47:14;;;;;;;18.50;7.60;;;;;;;;;;5078332;28;20028;-47
2022/03/11 07:49:40;;;;;;;22.80;8.63;;;;;;;;;;5083902;28;20020;-47
2022/03/11 07:52:09;;;;;;;23.02;7.68;;;;;;;;;;5084793;28;20107;-46
2022/03/11 07:54:35;;;;;;;20.33;8.40;;;;;;;;;;5079021;28;20036;-48
2022/03/11 07:57:01;;;;;;;20.42;7.20;;;;;;;;;;5083420;28;20028;-46
2022/03/11 07:59:31;;;;;;;21.27;7.85;;;;;;;;;;5085809;28;20029;-47
2022/03/11 08:01:58;;;;;;;20.08;8.55;;;;;;;;;;5082669;28;20452;-47
2022/03/11 08:04:24;;;;;;;17.38;7.25;;;;;;;;;;5092910;28;20058;-47
2022/03/11 08:06:51;;;;;;;17.95;7.60;;;;;;;;;;5088061;28;20036;-47
2022/03/11 08:09:17;;;;;;;18.95;7.60;;;;;;;;;;5085046;28;20027;-48
2022/03/11 08:11:43;;;;;;;20.63;7.35;;;;;;;;;;5090807;28;20145;-48
2022/03/11 08:14:09;;;;;;;17.95;7.38;;;;;;;;;;5090087;28;20461;-45
2022/03/11 08:16:35;;;;;;;18.65;7.78;;;;;;;;;;5078576;28;20354;-47
2022/03/11 08:19:02;;;;;;;19.48;7.22;;;;;;;;;;5081750;28;20396;-49
2022/03/11 08:21:28;;;;;;;18.10;7.70;;;;;;;;;;5089228;28;20032;-45
2022/03/11 08:23:54;;;;;;;16.10;7.30;;;;;;;;;;5090269;28;20024;-46
2022/03/11 08:26:20;;;;;;;17.23;6.95;;;;;;;;;;5085319;28;20028;-47
2022/03/11 08:28:46;;;;;;;17.02;7.32;;;;;;;;;;5081540;28;20028;-46
2022/03/11 08:31:12;;;;;;;17.60;7.50;;;;;;;;;;5085515;28;20111;-50
2022/03/11 08:33:39;;;;;;;16.27;6.65;;;;;;;;;;5092554;28;20410;-50
2022/03/11 08:36:06;;;;;;;16.60;7.10;;;;;;;;;;5083356;28;20411;-45
2022/03/11 08:38:32;;;;;;;22.00;8.98;;;;;;;;;;5076439;28;20024;-45
2022/03/11 08:41:00;;;;;;;13.65;6.90;;;;;;;;;;5077166;28;20536;-46
2022/03/11 08:43:26;;;;;;;18.02;7.38;;;;;;;;;;5082252;28;20036;-46
2022/03/11 08:45:52;;;;;;;18.38;7.30;;;;;;;;;;5078484;28;20043;-45
2022/03/11 08:48:18;;;;;;;16.15;7.32;;;;;;;;;;5081354;28;20032;-45
2022/03/11 08:50:44;;;;;;;16.40;7.22;;;;;;;;;;5085432;28;20027;-45
2022/03/11 08:53:10;;;;;;;16.50;7.57;;;;;;;;;;5084040;28;20085;-46
2022/03/11 08:55:37;;;;;;;18.95;7.78;;;;;;;;;;5082079;28;20483;-46
2022/03/11 08:58:03;;;;;;;13.90;6.90;;;;;;;;;;5083704;28;20048;-46
2022/03/11 09:00:29;;;;;;;15.40;7.38;;;;;;;;;;5077374;28;20105;-45
2022/03/11 09:02:55;;;;;;;18.08;7.57;;;;;;;;;;5084553;28;20484;-48
2022/03/11 09:05:22;;;;;;;14.43;6.35;;;;;;;;;;5078417;28;20334;-49
2022/03/11 09:07:49;;;;;;;16.20;7.15;;;;;;;;;;5089255;28;20028;-46
2022/03/11 09:10:18;;;;;;;14.00;6.38;;;;;;;;;;5088822;28;20115;-51
2022/03/11 09:12:44;;;;;;;13.18;5.88;;;;;;;;;;5086258;28;20028;-46
2022/03/11 09:15:10;;;;;;;14.30;7.10;;;;;;;;;;5088029;28;20073;-48
2022/03/11 09:17:37;;;;;;;12.18;6.30;;;;;;;;;;5093455;28;20028;-47
2022/03/11 09:20:03;;;;;;;15.05;6.10;;;;;;;;;;5074910;28;20439;-45
2022/03/11 09:22:30;;;;;;;13.13;6.20;;;;;;;;;;5090148;28;20027;-45
2022/03/11 09:24:57;;;;;;;15.85;6.32;;;;;;;;;;5090785;28;20043;-45
2022/03/11 09:27:24;;;;;;;11.55;5.72;;;;;;;;;;5077743;28;20020;-45
2022/03/11 09:29:50;;;;;;;17.52;6.78;;;;;;;;;;5076335;28;20026;-48
2022/03/11 09:32:16;;;;;;;13.55;6.15;;;;;;;;;;5084526;28;20035;-46
2022/03/11 09:34:43;;;;;;;14.35;5.88;;;;;;;;;;5075968;28;20021;-46
2022/03/11 09:37:10;;;;;;;20.17;7.22;;;;;;;;;;5075391;28;20756;-48
2022/03/11 09:39:36;;;;;;;13.70;6.15;;;;;;;;;;5079537;28;20043;-49
2022/03/11 09:42:02;;;;;;;15.77;6.50;;;;;;;;;;5084136;28;20047;-50
2022/03/11 09:44:28;;;;;;;17.27;6.97;;;;;;;;;;5085399;28;20512;-48
2022/03/11 09:46:54;;;;;;;12.95;6.25;;;;;;;;;;5082183;28;20721;-49
2022/03/11 09:49:20;;;;;;;17.27;6.60;;;;;;;;;;5089396;28;20107;-46
2022/03/11 09:51:47;;;;;;;14.13;6.18;;;;;;;;;;5086414;28;20100;-49
2022/03/11 09:54:13;;;;;;;13.57;6.68;;;;;;;;;;5079167;28;20350;-51
2022/03/11 09:56:40;;;;;;;16.08;6.97;;;;;;;;;;5090925;28;20081;-49
2022/03/11 09:59:07;;;;;;;13.70;6.30;;;;;;;;;;5090533;28;20024;-46
2022/03/11 10:01:33;;;;;;;12.75;5.80;;;;;;;;;;5080313;28;20031;-47
2022/03/11 10:03:59;;;;;;;13.35;6.45;;;;;;;;;;5078938;28;20051;-47
2022/03/11 10:06:39;;;;;;;11.90;5.63;;;;;;;;;;5085062;28;20024;-50
2022/03/11 10:09:05;;;;;;;14.07;6.70;;;;;;;;;;5086070;28;20496;-47
2022/03/11 10:11:31;;;;;;;15.73;5.90;;;;;;;;;;5087101;28;20020;-47
2022/03/11 10:14:07;;;;;;;10.48;5.00;;;;;;;;;;5087804;28;20486;-47
2022/03/11 10:16:34;;;;;;;14.00;6.38;;;;;;;;;;5080825;28;20114;-47
2022/03/11 10:19:07;;;;;;;12.95;5.53;;;;;;;;;;5087969;28;20024;-50
2022/03/11 10:21:37;;;;;;;14.82;5.90;;;;;;;;;;5081992;28;20028;-49
2022/03/11 10:24:05;;;;;;;12.48;5.82;;;;;;;;;;5087713;28;20040;-49
2022/03/11 10:26:39;;;;;;;13.80;6.00;;;;;;;;;;5073453;28;20025;-52
2022/03/11 10:29:06;;;;;;;12.20;5.82;;;;;;;;;;5086614;28;20054;-49
2022/03/11 10:31:33;;;;;;;11.63;5.63;;;;;;;;;;5085487;28;20024;-47
2022/03/11 10:34:17;;;;;;;12.32;5.50;;;;;;;;;;5076795;28;20032;-49
2022/03/11 10:36:47;;;;;;;13.35;5.55;;;;;;;;;;5091084;28;20077;-50
2022/03/11 10:39:14;;;;;;;13.93;5.85;;;;;;;;;;5089759;28;20060;-48
2022/03/11 10:41:40;;;;;;;12.07;5.53;;;;;;;;;;5079246;28;20099;-48
2022/03/11 10:44:09;;;;;;;14.00;5.55;;;;;;;;;;5083972;28;20372;-46
2022/03/11 10:46:35;;;;;;;16.10;6.60;;;;;;;;;;5074242;28;20067;-46
2022/03/11 10:49:01;;;;;;;12.02;6.10;;;;;;;;;;5077011;28;20025;-46
2022/03/11 10:51:32;;;;;;;12.70;6.00;;;;;;;;;;5078821;28;20115;-46
2022/03/11 10:53:59;;;;;;;13.13;5.53;;;;;;;;;;5081117;28;20051;-46
2022/03/11 10:56:26;;;;;;;12.90;5.88;;;;;;;;;;5082715;28;20096;-45
2022/03/11 10:58:52;;;;;;;12.75;5.15;;;;;;;;;;5077138;28;20470;-50
2022/03/11 11:01:38;;;;;;;14.85;5.68;;;;;;;;;;5085105;28;20111;-47
2022/03/11 11:04:05;;;;;;;12.10;5.85;;;;;;;;;;5074669;28;20016;-48
2022/03/11 11:06:31;;;;;;;9.20;5.00;;;;;;;;;;5077623;28;20025;-47
2022/03/11 11:08:57;;;;;;;8.25;4.13;;;;;;;;;;5080306;28;20067;-50
2022/03/11 11:11:23;;;;;;;9.77;4.78;;;;;;;;;;5090518;28;20049;-47
2022/03/11 11:13:49;;;;;;;10.75;5.32;;;;;;;;;;5090484;28;20394;-49
2022/03/11 11:16:16;;;;;;;10.82;5.28;;;;;;;;;;5082846;28;20378;-48
2022/03/11 11:18:46;;;;;;;10.85;5.80;;;;;;;;;;5093283;28;20093;-49
2022/03/11 11:21:13;;;;;;;9.15;4.28;;;;;;;;;;5091133;28;20032;-47
2022/03/11 11:23:39;;;;;;;10.30;4.47;;;;;;;;;;5084872;28;20086;-50
2022/03/11 11:26:07;;;;;;;11.70;5.03;;;;;;;;;;5090070;28;20103;-49
2022/03/11 11:28:33;;;;;;;11.70;5.03;;;;;;;;;;5086139;28;20024;-48
2022/03/11 11:31:00;;;;;;;10.85;4.82;;;;;;;;;;5083224;28;20074;-47
2022/03/11 11:33:26;;;;;;;9.13;4.47;;;;;;;;;;5078081;28;20107;-47
2022/03/11 11:35:56;;;;;;;11.02;4.55;;;;;;;;;;5082500;28;20091;-48
2022/03/11 11:38:37;;;;;;;8.23;4.57;;;;;;;;;;5084665;28;20127;-46
2022/03/11 11:41:23;;;;;;;8.77;4.15;;;;;;;;;;5085936;28;20478;-47
2022/03/11 11:43:54;;;;;;;13.10;4.03;;;;;;;;;;5088261;28;20024;-46
2022/03/11 11:46:22;;;;;;;8.93;4.47;;;;;;;;;;5089243;28;20083;-46
2022/03/11 11:48:48;;;;;;;10.30;4.68;;;;;;;;;;5077092;28;20775;-47
2022/03/11 11:51:15;;;;;;;8.48;4.18;;;;;;;;;;5081152;28;20028;-46
2022/03/11 11:53:52;;;;;;;11.38;4.15;;;;;;;;;;5083457;28;20849;-46
2022/03/11 11:56:32;;;;;;;10.15;4.60;;;;;;;;;;5081251;28;20428;-47
2022/03/11 11:59:03;;;;;;;8.35;4.15;;;;;;;;;;5081922;28;20054;-48
2022/03/11 12:01:48;;;;;;;11.95;4.32;;;;;;;;;;5092353;28;20115;-48
2022/03/11 12:04:17;;;;;;;10.48;4.82;;;;;;;;;;5078937;28;20033;-47
2022/03/11 12:06:59;;;;;;;7.28;4.35;;;;;;;;;;5076621;28;20040;-47
2022/03/11 12:09:40;;;;;;;6.55;3.65;;;;;;;;;;5081078;28;20032;-47
2022/03/11 12:12:10;;;;;;;7.72;3.75;;;;;;;;;;5080197;28;20116;-48
2022/03/11 12:15:06;;;;;;;7.70;4.10;;;;;;;;;;5078962;28;20074;-45
2022/03/11 12:17:36;;;;;;;8.35;3.70;;;;;;;;;;5089353;28;20036;-47
2022/03/11 12:20:21;;;;;;;7.20;3.97;;;;;;;;;;5081366;28;20085;-47
2022/03/11 12:23:07;;;;;;;7.85;3.80;;;;;;;;;;5080250;28;20028;-50
2022/03/11 12:25:33;;;;;;;9.40;4.80;;;;;;;;;;5079587;28;20031;-48
2022/03/11 12:28:01;;;;;;;8.73;4.13;;;;;;;;;;5086070;28;20465;-48
2022/03/11 12:30:31;;;;;;;7.95;4.53;;;;;;;;;;5083829;28;20020;-49
2022/03/11 12:33:05;;;;;;;6.03;3.50;;;;;;;;;;5080367;28;20025;-48
2022/03/11 12:35:31;;;;;;;8.07;3.97;;;;;;;;;;5092857;28;20051;-45
2022/03/11 12:37:57;;;;;;;9.07;3.75;;;;;;;;;;5083583;28;20037;-48
2022/03/11 12:40:24;;;;;;;8.27;4.00;;;;;;;;;;5082803;28;20033;-46
2022/03/11 12:42:57;;;;;;;6.18;3.55;;;;;;;;;;5088073;28;20032;-47
2022/03/11 12:45:33;;;;;;;8.05;3.47;;;;;;;;;;5089564;28;20059;-46
2022/03/11 12:47:59;;;;;;;8.63;3.90;;;;;;;;;;5092751;28;20123;-46
2022/03/11 12:50:26;;;;;;;7.15;3.65;;;;;;;;;;5082963;28;20036;-46
2022/03/11 12:52:54;;;;;;;7.75;3.42;;;;;;;;;;5085759;28;20044;-46
2022/03/11 12:55:21;;;;;;;8.27;3.78;;;;;;;;;;5081890;28;20038;-46
2022/03/11 12:57:50;;;;;;;6.47;3.42;;;;;;;;;;5086696;28;20026;-46
2022/03/11 13:00:20;;;;;;;8.68;3.97;;;;;;;;;;5090253;28;20327;-46
2022/03/11 13:02:47;;;;;;;9.40;4.00;;;;;;;;;;5088239;28;20028;-45
2022/03/11 13:05:24;;;;;;;9.00;3.65;;;;;;;;;;5091500;28;20111;-45
2022/03/11 13:07:51;;;;;;;6.43;3.50;;;;;;;;;;5088743;28;20067;-45
2022/03/11 13:10:18;;;;;;;9.13;4.65;;;;;;;;;;5088163;28;20024;-46
2022/03/11 13:12:44;;;;;;;8.25;3.47;;;;;;;;;;5082396;28;20025;-46
2022/03/11 13:15:21;;;;;;;6.57;3.38;;;;;;;;;;5087257;28;20032;-46
2022/03/11 13:17:48;;;;;;;7.50;3.30;;;;;;;;;;5079496;28;20364;-50
2022/03/11 13:20:30;;;;;;;7.85;3.65;;;;;;;;;;5088871;28;20028;-47
2022/03/11 13:22:57;;;;;;;7.18;3.25;;;;;;;;;;5078362;28;20055;-47
2022/03/11 13:25:27;;;;;;;7.70;3.60;;;;;;;;;;5085387;28;20114;-48
2022/03/11 13:27:54;;;;;;;7.43;3.67;;;;;;;;;;5083008;28;20634;-50
2022/03/11 13:30:37;;;;;;;7.70;3.97;;;;;;;;;;5084773;28;20020;-48
2022/03/11 13:33:13;;;;;;;10.73;3.88;;;;;;;;;;5085455;28;20027;-49
2022/03/11 13:35:39;;;;;;;7.78;3.47;;;;;;;;;;5081833;28;20028;-46
2022/03/11 13:38:05;;;;;;;7.68;3.35;;;;;;;;;;5081517;28;20074;-46
2022/03/11 13:40:31;;;;;;;8.35;3.17;;;;;;;;;;5079855;28;20024;-46
2022/03/11 13:42:59;;;;;;;9.82;4.10;;;;;;;;;;5084592;28;20704;-46
2022/03/11 13:45:33;;;;;;;7.50;3.60;;;;;;;;;;5078482;28;20740;-47
2022/03/11 13:48:09;;;;;;;9.55;4.05;;;;;;;;;;5080405;28;20024;-46
2022/03/11 13:50:37;;;;;;;7.80;3.45;;;;;;;;;;5088503;28;20024;-47
2022/03/11 13:53:04;;;;;;;7.30;3.63;;;;;;;;;;5080968;28;20071;-47
2022/03/11 13:55:37;;;;;;;7.65;3.70;;;;;;;;;;5084717;28;20046;-47
2022/03/11 13:58:13;;;;;;;7.60;3.53;;;;;;;;;;5077670;28;20020;-46
2022/03/11 14:00:39;;;;;;;8.30;3.35;;;;;;;;;;5073588;28;20047;-51
2022/03/11 14:03:38;;;;;;;9.40;3.55;;;;;;;;;;5072475;28;20043;-46
2022/03/11 14:06:04;;;;;;;6.82;3.58;;;;;;;;;;5071516;28;20035;-48
2022/03/11 14:08:30;;;;;;;8.13;3.40;;;;;;;;;;5091569;28;20028;-46
2022/03/11 14:11:02;;;;;;;5.82;3.25;;;;;;;;;;5077708;28;20089;-46
2022/03/11 14:13:31;;;;;;;6.03;3.28;;;;;;;;;;5080507;28;20056;-47
2022/03/11 14:16:05;;;;;;;7.43;3.28;;;;;;;;;;5081006;28;20103;-47
2022/03/11 14:18:31;;;;;;;8.20;3.63;;;;;;;;;;5079505;28;20115;-46
2022/03/11 14:20:57;;;;;;;6.32;3.40;;;;;;;;;;5082115;28;20020;-46
2022/03/11 14:23:23;;;;;;;7.25;3.30;;;;;;;;;;5088553;28;20162;-47
2022/03/11 14:25:49;;;;;;;8.05;3.10;;;;;;;;;;5080867;28;20032;-48
2022/03/11 14:28:17;;;;;;;6.35;3.22;;;;;;;;;;5086104;28;20044;-46
2022/03/11 14:30:43;;;;;;;10.05;3.45;;;;;;;;;;5079865;28;20032;-46
2022/03/11 14:33:09;;;;;;;6.38;3.40;;;;;;;;;;5080972;28;20020;-46
2022/03/11 14:35:36;;;;;;;7.30;3.35;;;;;;;;;;5079680;28;20029;-46